Time;durP1;ratioP1;P1;durP2;ratioP2;P2;SDS_P1;SDS_P2;PMS_P1;PMS_P2;Temp;Humidity;BMP_temperature;BMP_pressure;BME280_temperature;BME280_humidity;BME280_pressure;Samples;Min_cycle;Max_cycle;Signal;HPM_P1;HPM_P2
2022/10/16 00:00:57;;;;;;;2.60;2.40;;;16.60;99.90;;;;;;5096307;28;20456;-69
2022/10/16 00:03:24;;;;;;;2.40;2.20;;;16.60;99.90;;;;;;5096396;28;20469;-69
2022/10/16 00:05:50;;;;;;;2.53;2.03;;;16.60;99.90;;;;;;5096212;28;20479;-69
2022/10/16 00:08:17;;;;;;;2.63;2.07;;;16.60;99.90;;;;;;5096038;28;20512;-69
2022/10/16 00:10:44;;;;;;;2.80;1.80;;;16.60;99.90;;;;;;5096234;28;20463;-69
2022/10/16 00:13:12;;;;;;;2.30;2.00;;;16.60;99.90;;;;;;5096097;28;20792;-69
2022/10/16 00:15:39;;;;;;;2.83;2.30;;;16.60;99.90;;;;;;5095782;28;20540;-69
2022/10/16 00:18:06;;;;;;;2.37;2.17;;;16.60;99.90;;;;;;5096147;28;20785;-69
2022/10/16 00:20:36;;;;;;;3.30;2.13;;;16.60;99.90;;;;;;5095905;28;20807;-69
2022/10/16 00:23:04;;;;;;;3.00;2.07;;;16.70;99.90;;;;;;5096439;28;20457;-68
2022/10/16 00:25:32;;;;;;;2.50;2.30;;;16.70;99.90;;;;;;5095301;28;20477;-68
2022/10/16 00:27:59;;;;;;;2.10;1.87;;;16.70;99.90;;;;;;5095658;28;20580;-69
2022/10/16 00:30:28;;;;;;;1.67;1.57;;;16.70;99.90;;;;;;5095406;28;20468;-69
2022/10/16 00:32:55;;;;;;;1.73;1.63;;;16.70;99.90;;;;;;5095329;28;20457;-69
2022/10/16 00:35:22;;;;;;;2.63;2.00;;;16.70;99.90;;;;;;5095234;28;20496;-69
2022/10/16 00:37:49;;;;;;;2.20;2.00;;;16.70;99.90;;;;;;5095481;28;20449;-69
2022/10/16 00:40:16;;;;;;;2.20;1.80;;;16.70;99.90;;;;;;5095441;28;20549;-69
2022/10/16 00:42:43;;;;;;;2.10;1.90;;;16.70;99.90;;;;;;5095353;28;20542;-68
2022/10/16 00:45:11;;;;;;;1.80;1.70;;;16.70;99.90;;;;;;5095041;28;20544;-68
2022/10/16 00:47:44;;;;;;;2.07;1.83;;;16.70;99.90;;;;;;5095365;28;20564;-68
2022/10/16 00:50:17;;;;;;;1.83;1.73;;;16.70;99.90;;;;;;5095119;28;20438;-68
2022/10/16 00:52:48;;;;;;;6.23;1.77;;;16.70;99.90;;;;;;5095505;28;20441;-68
2022/10/16 00:55:15;;;;;;;1.77;1.60;;;16.70;99.90;;;;;;5095373;28;20437;-69
2022/10/16 00:57:43;;;;;;;2.50;2.20;;;16.70;99.90;;;;;;5095412;28;20453;-69
2022/10/16 01:00:12;;;;;;;5.07;1.67;;;16.60;99.90;;;;;;5095184;28;20792;-68
2022/10/16 01:02:41;;;;;;;3.03;1.80;;;16.70;99.90;;;;;;5095461;28;20449;-68
2022/10/16 01:05:09;;;;;;;3.30;1.70;;;16.70;99.90;;;;;;5095146;28;20846;-68
2022/10/16 01:07:45;;;;;;;3.30;2.20;;;16.70;99.90;;;;;;5094694;28;20481;-68
2022/10/16 01:10:22;;;;;;;2.47;2.27;;;16.70;99.90;;;;;;5096021;28;20445;-69
2022/10/16 01:12:55;;;;;;;1.97;1.83;;;16.70;99.90;;;;;;5095300;28;20441;-68
2022/10/16 01:15:28;;;;;;;2.10;1.90;;;16.70;99.90;;;;;;5095562;28;20833;-68
2022/10/16 01:18:01;;;;;;;4.20;2.20;;;16.70;99.90;;;;;;5094546;28;20438;-68
2022/10/16 01:20:31;;;;;;;1.97;1.77;;;16.70;99.90;;;;;;5094983;28;20521;-68
2022/10/16 01:23:10;;;;;;;1.87;1.70;;;16.70;99.90;;;;;;5095028;28;20533;-68
2022/10/16 01:26:13;;;;;;;3.00;1.57;;;16.70;99.90;;;;;;5095002;28;20453;-68
2022/10/16 01:28:47;;;;;;;1.70;1.50;;;16.70;99.90;;;;;;5094888;28;20465;-66
2022/10/16 01:31:19;;;;;;;1.80;1.67;;;16.70;99.90;;;;;;5094574;28;20447;-67
2022/10/16 01:33:49;;;;;;;3.03;1.90;;;16.60;99.90;;;;;;5094704;28;20453;-68
2022/10/16 01:36:19;;;;;;;1.90;1.70;;;16.60;99.90;;;;;;5095471;28;20437;-68
2022/10/16 01:38:50;;;;;;;2.20;1.63;;;16.60;99.90;;;;;;5094684;28;20459;-69
2022/10/16 01:41:22;;;;;;;7.40;2.30;;;16.70;99.90;;;;;;5094650;28;20469;-68
2022/10/16 01:43:58;;;;;;;1.90;1.60;;;16.60;99.90;;;;;;5094645;28;20520;-68
2022/10/16 01:46:27;;;;;;;2.63;1.90;;;16.60;99.90;;;;;;5094865;28;20451;-69
2022/10/16 01:48:54;;;;;;;2.80;1.80;;;16.60;99.90;;;;;;5095815;28;20481;-69
2022/10/16 01:51:22;;;;;;;1.73;1.63;;;16.60;99.90;;;;;;5095882;28;20491;-69
2022/10/16 01:53:53;;;;;;;1.80;1.70;;;16.60;99.90;;;;;;5094589;28;20463;-67
2022/10/16 01:56:22;;;;;;;2.60;1.90;;;16.60;99.90;;;;;;5094293;28;20768;-68
2022/10/16 01:58:55;;;;;;;2.20;2.00;;;16.60;99.90;;;;;;5094633;28;20795;-67
2022/10/16 02:01:25;;;;;;;2.43;1.60;;;16.60;99.90;;;;;;5094344;28;20856;-67
2022/10/16 02:03:57;;;;;;;2.00;1.80;;;16.60;99.90;;;;;;5094365;28;20453;-68
2022/10/16 02:06:24;;;;;;;2.50;2.23;;;16.60;99.90;;;;;;5094247;28;20749;-68
2022/10/16 02:08:51;;;;;;;2.40;1.93;;;16.60;99.90;;;;;;5093790;28;20488;-68
2022/10/16 02:11:18;;;;;;;2.23;1.93;;;16.60;99.90;;;;;;5096138;28;20457;-68
2022/10/16 02:13:48;;;;;;;2.07;1.77;;;16.60;99.90;;;;;;5098136;28;20456;-68
2022/10/16 02:16:17;;;;;;;1.87;1.70;;;16.60;99.90;;;;;;5098410;28;20532;-68
2022/10/16 02:18:44;;;;;;;6.93;1.83;;;16.60;99.90;;;;;;5098167;28;20461;-68
2022/10/16 02:21:18;;;;;;;2.70;1.70;;;16.60;99.90;;;;;;5098658;28;20548;-68
2022/10/16 02:23:52;;;;;;;2.17;1.60;;;16.60;99.90;;;;;;5097937;28;20557;-68
2022/10/16 02:26:28;;;;;;;2.17;1.77;;;16.50;99.90;;;;;;5098272;28;20441;-68
2022/10/16 02:29:00;;;;;;;5.63;1.77;;;16.50;99.90;;;;;;5097686;28;20472;-68
2022/10/16 02:31:33;;;;;;;3.30;2.07;;;16.60;99.90;;;;;;5097692;28;20448;-68
2022/10/16 02:34:02;;;;;;;2.20;2.00;;;16.60;99.90;;;;;;5097719;28;20539;-68
2022/10/16 02:36:30;;;;;;;1.70;1.60;;;16.60;99.90;;;;;;5097642;28;20496;-68
2022/10/16 02:38:57;;;;;;;1.90;1.70;;;16.50;99.90;;;;;;5097329;28;20862;-68
2022/10/16 02:41:25;;;;;;;1.83;1.60;;;16.60;99.90;;;;;;5097594;28;20464;-67
2022/10/16 02:43:51;;;;;;;1.97;1.77;;;16.50;99.90;;;;;;5097316;28;20556;-67
2022/10/16 02:46:19;;;;;;;1.93;1.73;;;16.60;99.90;;;;;;5097250;28;20457;-67
2022/10/16 02:48:47;;;;;;;3.73;2.10;;;16.50;99.90;;;;;;5097388;28;20477;-68
2022/10/16 02:51:14;;;;;;;2.23;1.67;;;16.50;99.90;;;;;;5097621;28;20545;-68
2022/10/16 02:53:41;;;;;;;2.13;1.70;;;16.50;99.90;;;;;;5097356;28;20902;-68
2022/10/16 02:56:08;;;;;;;2.40;1.63;;;16.60;99.90;;;;;;5097866;28;20473;-68
2022/10/16 02:58:35;;;;;;;5.90;1.70;;;16.60;99.90;;;;;;5097449;28;20449;-68
2022/10/16 03:01:03;;;;;;;4.97;1.67;;;16.50;99.90;;;;;;5097328;28;20461;-68
2022/10/16 03:03:30;;;;;;;2.00;1.80;;;16.50;99.90;;;;;;5097029;28;20453;-68
2022/10/16 03:05:58;;;;;;;1.93;1.70;;;16.50;99.90;;;;;;5097207;28;20770;-68
2022/10/16 03:08:25;;;;;;;2.80;1.60;;;16.50;99.90;;;;;;5096931;28;21003;-68
2022/10/16 03:10:53;;;;;;;2.00;1.80;;;16.50;99.90;;;;;;5097272;28;20449;-68
2022/10/16 03:13:21;;;;;;;2.50;1.80;;;16.50;99.90;;;;;;5097231;28;20464;-67
2022/10/16 03:15:48;;;;;;;2.20;2.00;;;16.50;99.90;;;;;;5097453;28;20468;-67
2022/10/16 03:18:15;;;;;;;2.30;2.10;;;16.50;99.90;;;;;;5097730;28;20540;-67
2022/10/16 03:20:43;;;;;;;2.73;2.00;;;16.50;99.90;;;;;;5097595;28;20457;-68
2022/10/16 03:23:11;;;;;;;2.80;2.13;;;16.40;99.90;;;;;;5097080;28;20463;-68
2022/10/16 03:25:38;;;;;;;2.23;1.70;;;16.50;99.90;;;;;;5097112;28;20464;-67
2022/10/16 03:28:05;;;;;;;2.20;2.00;;;16.50;99.90;;;;;;5096762;28;20484;-67
2022/10/16 03:30:31;;;;;;;2.80;1.70;;;16.40;99.90;;;;;;5097037;28;20841;-68
2022/10/16 03:32:58;;;;;;;2.00;1.80;;;16.40;99.90;;;;;;5097285;28;20544;-68
2022/10/16 03:35:26;;;;;;;2.73;1.63;;;16.40;99.90;;;;;;5098043;28;20561;-67
2022/10/16 03:37:52;;;;;;;1.93;1.73;;;16.40;99.90;;;;;;5097312;28;20784;-67
2022/10/16 03:40:21;;;;;;;2.23;1.80;;;16.40;99.90;;;;;;5096689;28;20453;-67
2022/10/16 03:42:47;;;;;;;1.70;1.60;;;16.30;99.90;;;;;;5096980;28;20454;-67
2022/10/16 03:45:14;;;;;;;2.60;2.40;;;16.30;99.90;;;;;;5096518;28;20553;-67
2022/10/16 03:47:41;;;;;;;2.13;1.93;;;16.30;99.90;;;;;;5096757;28;20453;-67
2022/10/16 03:50:09;;;;;;;2.27;2.07;;;16.30;99.90;;;;;;5096882;28;20453;-67
2022/10/16 03:52:36;;;;;;;1.93;1.73;;;16.20;99.90;;;;;;5096721;28;20765;-67
2022/10/16 03:55:03;;;;;;;2.13;1.87;;;16.20;99.90;;;;;;5096488;28;20453;-67
2022/10/16 03:57:31;;;;;;;2.10;1.90;;;16.20;99.90;;;;;;5096255;28;20488;-67
2022/10/16 03:59:58;;;;;;;2.80;2.47;;;16.20;99.90;;;;;;5096752;28;20449;-67
2022/10/16 04:02:24;;;;;;;2.10;1.90;;;16.10;99.90;;;;;;5095987;28;20453;-68
2022/10/16 04:04:51;;;;;;;2.47;2.20;;;16.10;99.90;;;;;;5096345;28;20921;-68
2022/10/16 04:07:18;;;;;;;3.30;1.97;;;16.10;99.90;;;;;;5096534;28;20453;-68
2022/10/16 04:09:47;;;;;;;5.03;1.87;;;16.10;99.90;;;;;;5096082;28;20487;-68
2022/10/16 04:12:14;;;;;;;2.30;2.10;;;16.00;99.90;;;;;;5096237;28;21000;-68
2022/10/16 04:14:42;;;;;;;2.80;2.37;;;16.00;99.90;;;;;;5096354;28;20453;-68
2022/10/16 04:17:08;;;;;;;2.30;2.10;;;16.00;99.90;;;;;;5096137;28;20721;-68
2022/10/16 04:19:35;;;;;;;4.73;2.10;;;16.00;99.90;;;;;;5096132;28;20449;-68
2022/10/16 04:22:03;;;;;;;2.37;1.77;;;16.00;99.90;;;;;;5095566;28;20935;-68
2022/10/16 04:24:30;;;;;;;2.93;2.40;;;16.00;99.90;;;;;;5095603;28;20481;-68
2022/10/16 04:26:57;;;;;;;2.23;1.97;;;16.00;99.90;;;;;;5096057;28;20837;-68
2022/10/16 04:29:23;;;;;;;2.00;1.80;;;16.00;99.90;;;;;;5096280;28;20473;-68
2022/10/16 04:31:52;;;;;;;2.00;1.80;;;15.90;99.90;;;;;;5096385;28;20454;-68
2022/10/16 04:34:18;;;;;;;2.80;2.13;;;15.90;99.90;;;;;;5095071;28;20533;-68
2022/10/16 04:36:48;;;;;;;2.20;2.00;;;16.00;99.90;;;;;;5095878;28;20763;-68
2022/10/16 04:39:14;;;;;;;2.40;2.20;;;15.90;99.90;;;;;;5095681;28;20544;-68
2022/10/16 04:41:41;;;;;;;2.93;2.30;;;15.90;99.90;;;;;;5096931;28;20547;-68
2022/10/16 04:44:08;;;;;;;2.33;2.13;;;15.90;99.90;;;;;;5097545;28;20544;-68
2022/10/16 04:46:35;;;;;;;2.90;2.00;;;15.90;99.90;;;;;;5096651;28;20868;-68
2022/10/16 04:49:03;;;;;;;3.63;2.40;;;15.90;99.90;;;;;;5096593;28;20925;-68
2022/10/16 04:51:30;;;;;;;2.10;1.90;;;15.90;99.90;;;;;;5097030;28;20457;-68
2022/10/16 04:53:57;;;;;;;2.60;1.83;;;15.90;99.90;;;;;;5096282;28;20453;-68
2022/10/16 04:56:24;;;;;;;2.83;2.47;;;15.90;99.90;;;;;;5095278;28;20463;-68
2022/10/16 04:58:51;;;;;;;2.80;2.30;;;15.90;99.90;;;;;;5095364;28;20942;-68
2022/10/16 05:01:18;;;;;;;2.20;2.00;;;15.90;99.90;;;;;;5095422;28;20494;-68
2022/10/16 05:03:45;;;;;;;4.50;2.00;;;15.90;99.90;;;;;;5095939;28;20548;-68
2022/10/16 05:06:13;;;;;;;2.37;2.17;;;15.90;99.90;;;;;;5094885;28;20911;-68
2022/10/16 05:08:40;;;;;;;3.80;2.23;;;15.90;99.90;;;;;;5095207;28;20473;-68
2022/10/16 05:11:06;;;;;;;2.40;2.20;;;15.90;99.90;;;;;;5095125;28;20453;-68
2022/10/16 05:13:33;;;;;;;2.57;2.37;;;15.80;99.90;;;;;;5094974;28;20453;-68
2022/10/16 05:16:00;;;;;;;2.87;2.57;;;15.90;99.90;;;;;;5094810;28;20947;-68
2022/10/16 05:18:27;;;;;;;2.80;2.50;;;15.80;99.90;;;;;;5095131;28;20480;-68
2022/10/16 05:20:54;;;;;;;3.07;2.17;;;15.80;99.90;;;;;;5095015;28;20460;-68
2022/10/16 05:23:22;;;;;;;2.67;2.43;;;15.80;99.90;;;;;;5094845;28;20453;-68
2022/10/16 05:25:55;;;;;;;2.97;2.30;;;15.80;99.90;;;;;;5095135;28;20438;-68
2022/10/16 05:28:22;;;;;;;3.57;2.23;;;15.80;99.90;;;;;;5095268;28;20526;-68
2022/10/16 05:30:49;;;;;;;2.33;2.13;;;15.80;99.90;;;;;;5096285;28;20453;-68
2022/10/16 05:33:15;;;;;;;3.10;2.00;;;15.80;99.90;;;;;;5095137;28;20816;-68
2022/10/16 05:35:43;;;;;;;4.37;2.37;;;15.80;99.90;;;;;;5094470;28;20477;-68
2022/10/16 05:38:10;;;;;;;2.80;2.20;;;15.80;99.90;;;;;;5094301;28;20929;-68
2022/10/16 05:40:39;;;;;;;2.50;2.17;;;15.80;99.90;;;;;;5094326;28;20921;-68
2022/10/16 05:43:05;;;;;;;2.17;1.97;;;15.80;99.90;;;;;;5094657;28;20460;-68
2022/10/16 05:45:32;;;;;;;2.40;2.20;;;15.90;99.90;;;;;;5094934;28;20460;-68
2022/10/16 05:48:00;;;;;;;2.50;2.30;;;15.90;99.90;;;;;;5098560;28;20928;-68
2022/10/16 05:50:27;;;;;;;4.83;2.90;;;15.90;99.90;;;;;;5098804;28;20488;-67
2022/10/16 05:52:54;;;;;;;2.63;2.10;;;16.00;99.90;;;;;;5098468;28;20453;-67
2022/10/16 05:55:20;;;;;;;2.97;2.40;;;16.00;99.90;;;;;;5098373;28;20933;-68
2022/10/16 05:57:49;;;;;;;2.90;2.37;;;16.00;99.90;;;;;;5098501;28;20463;-68
2022/10/16 06:00:15;;;;;;;3.03;2.10;;;16.10;99.90;;;;;;5098799;28;20449;-68
2022/10/16 06:02:43;;;;;;;2.40;2.20;;;16.10;99.90;;;;;;5099233;28;20865;-68
2022/10/16 06:05:10;;;;;;;3.80;2.20;;;16.00;99.90;;;;;;5098681;28;20784;-68
2022/10/16 06:07:37;;;;;;;3.07;2.23;;;16.00;99.90;;;;;;5098218;28;20453;-67
2022/10/16 06:10:05;;;;;;;3.27;2.80;;;16.00;99.90;;;;;;5098302;28;20477;-67
2022/10/16 06:12:32;;;;;;;2.70;2.50;;;16.00;99.90;;;;;;5098187;28;21043;-67
2022/10/16 06:15:00;;;;;;;2.63;2.10;;;16.00;99.90;;;;;;5098252;28;20464;-68
2022/10/16 06:17:27;;;;;;;3.30;2.47;;;16.00;99.90;;;;;;5097922;28;20461;-66
2022/10/16 06:19:54;;;;;;;3.30;2.20;;;16.10;99.90;;;;;;5097712;28;20485;-66
2022/10/16 06:22:20;;;;;;;2.80;2.50;;;16.10;99.90;;;;;;5097758;28;20532;-67
2022/10/16 06:24:49;;;;;;;2.90;2.43;;;16.10;99.90;;;;;;5097828;28;20485;-67
2022/10/16 06:27:15;;;;;;;2.50;2.30;;;16.10;99.90;;;;;;5097983;28;20503;-67
2022/10/16 06:29:43;;;;;;;5.23;2.97;;;16.20;99.90;;;;;;5097687;28;20481;-67
2022/10/16 06:32:11;;;;;;;2.63;2.43;;;16.20;99.90;;;;;;5098010;28;20485;-67
2022/10/16 06:34:39;;;;;;;4.60;2.50;;;16.20;99.90;;;;;;5097890;28;20504;-67
2022/10/16 06:37:06;;;;;;;5.60;2.50;;;16.30;99.90;;;;;;5097865;28;20453;-67
2022/10/16 06:39:33;;;;;;;2.80;2.23;;;16.30;99.90;;;;;;5097667;28;20449;-67
2022/10/16 06:42:00;;;;;;;2.93;2.40;;;16.30;99.90;;;;;;5097457;28;20468;-67
2022/10/16 06:44:27;;;;;;;2.40;2.20;;;16.30;99.90;;;;;;5097792;28;20456;-67
2022/10/16 06:46:53;;;;;;;2.60;2.40;;;16.30;99.90;;;;;;5097777;28;20464;-67
2022/10/16 06:49:22;;;;;;;2.73;2.53;;;16.30;99.90;;;;;;5097569;28;20991;-67
2022/10/16 06:51:49;;;;;;;3.60;2.77;;;16.30;99.90;;;;;;5097311;28;20457;-67
2022/10/16 06:54:17;;;;;;;3.17;2.87;;;16.30;99.90;;;;;;5097548;28;20453;-67
2022/10/16 06:56:44;;;;;;;2.80;2.60;;;16.30;99.90;;;;;;5096521;28;20494;-67
2022/10/16 06:59:11;;;;;;;3.73;2.80;;;16.30;99.90;;;;;;5097317;28;20460;-68
2022/10/16 07:01:38;;;;;;;3.53;2.40;;;16.30;99.90;;;;;;5097466;28;20458;-68
2022/10/16 07:04:04;;;;;;;2.83;2.63;;;16.30;99.90;;;;;;5097330;28;20453;-68
2022/10/16 07:06:34;;;;;;;4.10;3.70;;;16.40;99.90;;;;;;5097657;28;20457;-68
2022/10/16 07:09:05;;;;;;;2.73;2.50;;;16.40;99.90;;;;;;5096996;28;20483;-68
2022/10/16 07:11:32;;;;;;;3.10;2.37;;;16.50;99.90;;;;;;5097167;28;20536;-68
2022/10/16 07:13:59;;;;;;;2.73;2.23;;;16.60;99.90;;;;;;5097170;28;21016;-67
2022/10/16 07:16:27;;;;;;;2.40;2.20;;;16.60;99.90;;;;;;5096847;28;20468;-68
2022/10/16 07:18:58;;;;;;;3.60;2.30;;;16.70;99.90;;;;;;5097642;28;20450;-68
2022/10/16 07:21:26;;;;;;;3.43;3.13;;;16.80;99.90;;;;;;5097161;28;20437;-68
2022/10/16 07:23:55;;;;;;;4.20;3.10;;;16.80;99.90;;;;;;5097240;28;20542;-68
2022/10/16 07:26:23;;;;;;;4.30;2.63;;;16.90;99.90;;;;;;5097097;28;20547;-68
2022/10/16 07:28:49;;;;;;;2.80;2.33;;;17.00;99.90;;;;;;5096576;28;20457;-68
2022/10/16 07:31:19;;;;;;;5.70;2.40;;;17.00;99.90;;;;;;5097195;28;20848;-68
2022/10/16 07:33:47;;;;;;;3.00;1.90;;;17.10;99.90;;;;;;5096692;28;20557;-68
2022/10/16 07:36:15;;;;;;;3.37;1.90;;;17.10;99.90;;;;;;5097492;28;20500;-68
2022/10/16 07:38:43;;;;;;;2.47;2.10;;;17.10;99.90;;;;;;5097534;28;20485;-67
2022/10/16 07:41:12;;;;;;;3.43;2.20;;;17.20;99.90;;;;;;5097180;28;20464;-67
2022/10/16 07:43:39;;;;;;;2.43;1.80;;;17.20;99.90;;;;;;5096780;28;20792;-67
2022/10/16 07:46:07;;;;;;;2.20;2.00;;;17.20;99.90;;;;;;5096819;28;20790;-67
2022/10/16 07:48:35;;;;;;;4.00;1.60;;;17.20;99.90;;;;;;5096191;28;20457;-67
2022/10/16 07:51:04;;;;;;;1.90;1.70;;;17.30;99.90;;;;;;5096200;28;21003;-67
2022/10/16 07:53:31;;;;;;;2.20;1.87;;;17.30;99.90;;;;;;5096830;28;20540;-66
2022/10/16 07:55:59;;;;;;;2.17;1.73;;;17.30;99.90;;;;;;5096824;28;20757;-66
2022/10/16 07:58:28;;;;;;;2.60;1.73;;;17.30;99.90;;;;;;5097208;28;20453;-67
2022/10/16 08:00:54;;;;;;;2.40;1.93;;;17.30;99.90;;;;;;5098021;28;20476;-66
2022/10/16 08:03:21;;;;;;;2.90;1.80;;;17.30;99.90;;;;;;5097836;28;20459;-66
2022/10/16 08:05:48;;;;;;;2.67;1.70;;;17.40;99.90;;;;;;5096184;28;20557;-66
2022/10/16 08:08:17;;;;;;;2.07;1.87;;;17.40;99.90;;;;;;5095943;28;20463;-67
2022/10/16 08:10:44;;;;;;;2.23;1.90;;;17.40;99.90;;;;;;5096649;28;20481;-67
2022/10/16 08:13:12;;;;;;;3.23;2.00;;;17.40;99.90;;;;;;5096945;28;20548;-67
2022/10/16 08:15:40;;;;;;;3.50;2.07;;;17.40;99.90;;;;;;5095517;28;20453;-67
2022/10/16 08:18:07;;;;;;;4.40;1.87;;;17.50;99.90;;;;;;5095722;28;20457;-67
2022/10/16 08:20:34;;;;;;;4.03;2.00;;;17.50;99.90;;;;;;5096390;28;20821;-67
2022/10/16 08:23:01;;;;;;;4.17;2.27;;;17.50;99.90;;;;;;5095700;28;20453;-68
2022/10/16 08:25:29;;;;;;;2.20;2.00;;;17.50;99.90;;;;;;5095264;28;20897;-67
2022/10/16 08:27:56;;;;;;;3.83;2.07;;;17.60;99.90;;;;;;5095212;28;20486;-68
2022/10/16 08:30:24;;;;;;;3.17;2.20;;;17.60;99.90;;;;;;5095466;28;20489;-67
2022/10/16 08:32:53;;;;;;;2.23;2.03;;;17.50;99.90;;;;;;5095655;28;20453;-69
2022/10/16 08:35:20;;;;;;;1.80;1.70;;;17.60;99.90;;;;;;5095570;28;20845;-69
2022/10/16 08:37:46;;;;;;;3.90;2.20;;;17.60;99.90;;;;;;5095306;28;20536;-68
2022/10/16 08:40:19;;;;;;;1.67;1.43;;;17.60;99.90;;;;;;5095198;28;20466;-69
2022/10/16 08:43:05;;;;;;;4.30;1.60;;;17.70;99.90;;;;;;5095322;28;20437;-68
2022/10/16 08:45:44;;;;;;;2.43;1.60;;;17.70;99.90;;;;;;5095436;28;20454;-69
2022/10/16 08:48:20;;;;;;;1.73;1.50;;;17.70;99.90;;;;;;5095328;28;20779;-68
2022/10/16 08:50:50;;;;;;;4.33;1.83;;;17.80;99.90;;;;;;5095166;28;20475;-69
2022/10/16 08:53:22;;;;;;;2.43;1.70;;;17.80;99.90;;;;;;5095389;28;20450;-69
2022/10/16 08:55:52;;;;;;;15.90;2.27;;;17.80;99.90;;;;;;5094735;28;20449;-68
2022/10/16 08:58:20;;;;;;;2.80;1.93;;;17.90;99.90;;;;;;5094741;28;20459;-68
2022/10/16 09:00:50;;;;;;;3.40;2.13;;;17.90;99.90;;;;;;5095258;28;20449;-68
2022/10/16 09:03:42;;;;;;;5.40;2.40;;;17.90;99.90;;;;;;5094905;28;20790;-68
2022/10/16 09:06:27;;;;;;;2.70;2.47;;;18.00;99.90;;;;;;5094609;28;20452;-68
2022/10/16 09:09:07;;;;;;;3.13;2.07;;;18.00;99.90;;;;;;5095088;28;20783;-68
2022/10/16 09:11:44;;;;;;;2.10;1.60;;;18.10;99.90;;;;;;5095317;28;20443;-68
2022/10/16 09:14:25;;;;;;;1.70;1.40;;;18.20;99.90;;;;;;5095582;28;20495;-68
2022/10/16 09:16:59;;;;;;;1.50;1.40;;;18.30;99.90;;;;;;5094879;28;20449;-68
2022/10/16 09:19:36;;;;;;;8.50;1.50;;;18.30;99.90;;;;;;5094477;28;20438;-68
2022/10/16 09:22:11;;;;;;;2.20;1.60;;;18.40;99.90;;;;;;5094676;28;20433;-68
2022/10/16 09:24:38;;;;;;;2.10;1.90;;;18.50;99.90;;;;;;5094365;28;20947;-68
2022/10/16 09:27:05;;;;;;;1.93;1.73;;;18.50;99.90;;;;;;5094218;28;20453;-68
2022/10/16 09:29:31;;;;;;;1.60;1.40;;;18.60;99.90;;;;;;5094356;28;20804;-68
2022/10/16 09:32:12;;;;;;;1.80;1.40;;;18.60;99.90;;;;;;5094121;28;20453;-67
2022/10/16 09:34:44;;;;;;;2.93;1.70;;;18.60;99.90;;;;;;5093938;28;20438;-67
2022/10/16 09:37:15;;;;;;;3.40;1.90;;;18.60;99.90;;;;;;5094444;28;20452;-68
2022/10/16 09:39:46;;;;;;;1.83;1.60;;;18.60;99.90;;;;;;5094919;28;20442;-69
2022/10/16 09:42:16;;;;;;;4.07;1.70;;;18.60;99.90;;;;;;5094163;28;20923;-68
2022/10/16 09:44:43;;;;;;;2.27;1.90;;;18.60;99.90;;;;;;5094900;28;20551;-68
2022/10/16 09:47:17;;;;;;;2.67;1.70;;;18.60;99.90;;;;;;5094429;28;20793;-68
2022/10/16 09:49:53;;;;;;;2.03;1.87;;;18.60;99.90;;;;;;5094120;28;20469;-68
2022/10/16 09:52:21;;;;;;;3.17;1.47;;;18.70;99.90;;;;;;5094109;28;20445;-68
2022/10/16 09:54:52;;;;;;;1.60;1.50;;;18.80;99.90;;;;;;5094400;28;20489;-68
2022/10/16 09:57:19;;;;;;;2.57;1.70;;;18.80;99.90;;;;;;5094285;28;20530;-67
2022/10/16 09:59:50;;;;;;;2.90;1.57;;;18.80;99.90;;;;;;5094330;28;20573;-69
2022/10/16 10:02:19;;;;;;;1.47;1.37;;;18.80;99.90;;;;;;5094106;28;20778;-68
2022/10/16 10:04:53;;;;;;;2.70;1.93;;;18.80;99.90;;;;;;5093942;28;20453;-68
2022/10/16 10:07:26;;;;;;;2.43;1.43;;;18.90;99.90;;;;;;5093984;28;20445;-68
2022/10/16 10:09:54;;;;;;;1.40;1.00;;;19.10;99.90;;;;;;5094374;28;20461;-68
2022/10/16 10:12:23;;;;;;;2.80;1.53;;;19.20;99.90;;;;;;5094617;28;20501;-68
2022/10/16 10:14:51;;;;;;;1.40;1.20;;;19.30;99.90;;;;;;5094689;28;20463;-68
2022/10/16 10:17:21;;;;;;;2.43;1.60;;;19.30;99.90;;;;;;5093659;28;20453;-68
2022/10/16 10:19:50;;;;;;;1.83;1.37;;;19.20;99.90;;;;;;5094186;28;20453;-67
2022/10/16 10:22:28;;;;;;;1.50;1.20;;;19.20;99.90;;;;;;5094002;28;20453;-68
2022/10/16 10:25:15;;;;;;;1.87;1.37;;;19.30;99.90;;;;;;5093705;28;20485;-67
2022/10/16 10:27:58;;;;;;;3.40;1.30;;;19.20;99.90;;;;;;5076749;28;20461;-68
2022/10/16 10:30:29;;;;;;;1.57;1.40;;;19.20;99.90;;;;;;5094146;28;20469;-68
2022/10/16 10:33:10;;;;;;;1.30;1.17;;;19.20;99.90;;;;;;5096849;28;20759;-68
2022/10/16 10:35:44;;;;;;;2.23;1.40;;;19.20;99.90;;;;;;5097944;28;20544;-68
2022/10/16 10:38:26;;;;;;;3.03;1.40;;;19.10;99.90;;;;;;5097842;28;20443;-68
2022/10/16 10:41:01;;;;;;;1.93;1.17;;;19.10;99.90;;;;;;5098410;28;20438;-68
2022/10/16 10:43:46;;;;;;;2.10;1.60;;;19.10;99.90;;;;;;5097981;28;20463;-68
2022/10/16 10:46:21;;;;;;;1.40;1.30;;;19.10;99.90;;;;;;5097560;28;20529;-68
2022/10/16 10:49:08;;;;;;;1.40;1.30;;;19.20;99.90;;;;;;5097387;28;20441;-69
2022/10/16 10:51:43;;;;;;;1.40;1.10;;;19.30;99.90;;;;;;5097684;28;20792;-68
2022/10/16 10:54:19;;;;;;;1.90;1.20;;;19.50;99.90;;;;;;5097241;28;20441;-71
2022/10/16 10:56:51;;;;;;;4.40;1.30;;;19.60;99.90;;;;;;5097071;28;20515;-68
2022/10/16 10:59:42;;;;;;;1.23;1.10;;;19.70;99.90;;;;;;5097269;28;20539;-67
2022/10/16 11:02:18;;;;;;;3.33;1.30;;;19.80;99.90;;;;;;5097017;28;20451;-69
2022/10/16 11:05:13;;;;;;;1.70;1.23;;;19.90;99.90;;;;;;5096920;28;20460;-69
2022/10/16 11:07:45;;;;;;;3.00;1.00;;;20.10;99.90;;;;;;5096890;28;20437;-67
2022/10/16 11:10:21;;;;;;;3.70;1.23;;;20.20;99.90;;;;;;5096829;28;20537;-68
2022/10/16 11:12:52;;;;;;;2.17;1.30;;;20.20;99.90;;;;;;5096666;28;20441;-68
2022/10/16 11:15:22;;;;;;;6.27;1.30;;;20.20;99.90;;;;;;5096751;28;20445;-68
2022/10/16 11:17:52;;;;;;;2.03;1.40;;;20.20;99.90;;;;;;5096566;28;20467;-68
2022/10/16 11:20:24;;;;;;;1.80;1.20;;;20.20;99.90;;;;;;5097401;28;20434;-68
2022/10/16 11:22:56;;;;;;;5.50;1.13;;;20.10;99.90;;;;;;5096914;28;20927;-68
2022/10/16 11:25:27;;;;;;;1.80;1.40;;;20.10;99.90;;;;;;5096639;28;20480;-68
2022/10/16 11:28:02;;;;;;;1.83;1.30;;;20.20;99.90;;;;;;5096283;28;20463;-68
2022/10/16 11:30:31;;;;;;;2.73;1.00;;;20.30;99.90;;;;;;5096400;28;20461;-68
2022/10/16 11:33:11;;;;;;;3.07;1.33;;;20.30;99.90;;;;;;5096891;28;20475;-68
2022/10/16 11:35:48;;;;;;;5.33;1.30;;;20.30;99.90;;;;;;5096672;28;20429;-68
2022/10/16 11:38:21;;;;;;;1.63;1.23;;;20.40;99.90;;;;;;5096345;28;20442;-68
2022/10/16 11:40:53;;;;;;;1.73;1.23;;;20.50;99.90;;;;;;5096806;28;20533;-69
2022/10/16 11:43:26;;;;;;;7.23;1.87;;;20.60;99.90;;;;;;5096249;28;20434;-68
2022/10/16 11:45:56;;;;;;;1.57;1.47;;;20.70;99.90;;;;;;5096266;28;20885;-68
2022/10/16 11:48:31;;;;;;;2.87;1.47;;;20.80;99.90;;;;;;5096566;28;20536;-72
2022/10/16 11:51:06;;;;;;;1.60;1.10;;;21.10;99.90;;;;;;5096377;28;20465;-68
2022/10/16 11:53:46;;;;;;;2.90;1.20;;;21.60;99.90;;;;;;5096108;28;20881;-69
2022/10/16 11:56:18;;;;;;;1.53;1.20;;;22.30;99.90;;;;;;5095953;28;20520;-69
2022/10/16 11:58:55;;;;;;;1.80;1.27;;;22.70;99.90;;;;;;5096383;28;20732;-68
2022/10/16 12:01:28;;;;;;;1.60;1.00;;;22.80;99.90;;;;;;5096088;28;20433;-69
2022/10/16 12:04:06;;;;;;;2.20;1.63;;;22.80;99.90;;;;;;5096289;28;20445;-69
2022/10/16 12:06:35;;;;;;;1.80;1.63;;;22.70;99.90;;;;;;5096136;28;20791;-69
2022/10/16 12:09:03;;;;;;;1.77;0.90;;;22.80;99.90;;;;;;5095753;28;21008;-69
2022/10/16 12:11:38;;;;;;;1.50;1.40;;;22.60;99.90;;;;;;5095738;28;20802;-69
2022/10/16 12:14:20;;;;;;;2.40;1.70;;;22.50;99.90;;;;;;5095661;28;20928;-70
2022/10/16 12:16:55;;;;;;;1.50;1.33;;;22.70;99.90;;;;;;5095745;28;20452;-70
2022/10/16 12:19:23;;;;;;;2.53;1.20;;;23.30;99.90;;;;;;5095637;28;20453;-70
2022/10/16 12:21:52;;;;;;;2.27;1.50;;;24.40;99.90;;;;;;5095720;28;20449;-69
2022/10/16 12:24:30;;;;;;;1.33;1.00;;;25.60;99.90;;;;;;5095465;28;20485;-70
2022/10/16 12:26:59;;;;;;;3.57;0.80;;;26.30;99.90;;;;;;5095891;28;20438;-70
2022/10/16 12:29:34;;;;;;;1.30;0.90;;;26.40;99.90;;;;;;5095874;28;20863;-69
2022/10/16 12:32:01;;;;;;;1.60;1.00;;;26.90;99.90;;;;;;5094900;28;20928;-70
2022/10/16 12:34:33;;;;;;;3.20;1.17;;;27.40;99.90;;;;;;5095020;28;20463;-69
2022/10/16 12:37:11;;;;;;;1.30;0.80;;;28.10;99.90;;;;;;5095404;28;20528;-70
2022/10/16 12:39:38;;;;;;;7.30;1.43;;;28.30;98.70;;;;;;5095056;28;20532;-69
2022/10/16 12:42:20;;;;;;;1.20;0.80;;;28.60;96.10;;;;;;5095239;28;20446;-70
2022/10/16 12:44:47;;;;;;;1.23;0.80;;;28.80;93.40;;;;;;5095836;28;20532;-70
2022/10/16 12:47:22;;;;;;;1.10;0.73;;;28.90;90.50;;;;;;5095484;28;20544;-70
2022/10/16 12:49:51;;;;;;;1.20;0.70;;;28.60;88.40;;;;;;5096868;28;20476;-70
2022/10/16 12:52:29;;;;;;;1.00;0.70;;;28.10;87.10;;;;;;5096157;28;20986;-69
2022/10/16 12:55:00;;;;;;;1.30;0.97;;;27.40;90.30;;;;;;5094993;28;20453;-70
2022/10/16 12:57:48;;;;;;;1.30;0.83;;;27.10;91.30;;;;;;5095624;28;20740;-70
2022/10/16 13:00:25;;;;;;;1.03;0.70;;;27.10;90.30;;;;;;5095289;28;20442;-69
2022/10/16 13:03:20;;;;;;;1.60;0.90;;;27.00;90.80;;;;;;5095433;28;20524;-70